createdAt,value
2018-10-06T00:02:14.704Z,10.07
2018-10-06T00:04:43.046Z,10.30
2018-10-06T00:07:11.420Z,9.50
2018-10-06T00:09:39.746Z,9.70
2018-10-06T00:12:08.093Z,9.50
2018-10-06T00:14:36.538Z,9.57
2018-10-06T00:17:04.891Z,9.20
2018-10-06T00:19:33.229Z,10.43
2018-10-06T00:22:01.552Z,10.20
2018-10-06T00:24:29.920Z,10.43
2018-10-06T00:26:58.213Z,9.60
2018-10-06T00:29:26.625Z,10.20
2018-10-06T00:31:54.983Z,9.40
2018-10-06T00:34:23.307Z,9.23
2018-10-06T00:36:51.698Z,9.60
2018-10-06T00:39:20.163Z,9.90
2018-10-06T00:41:48.563Z,10.00
2018-10-06T00:44:16.932Z,9.47
2018-10-06T00:46:45.435Z,10.13
2018-10-06T00:49:13.739Z,9.47
2018-10-06T00:51:42.270Z,9.93
2018-10-06T00:54:10.602Z,9.80
2018-10-06T00:56:39.015Z,9.23
2018-10-06T00:59:07.522Z,9.33
2018-10-06T01:01:36.007Z,10.07
2018-10-06T01:04:04.524Z,9.77
2018-10-06T01:06:32.878Z,9.83
2018-10-06T01:09:01.216Z,9.63
2018-10-06T01:11:29.601Z,10.13
2018-10-06T01:13:58.077Z,9.33
2018-10-06T01:16:26.503Z,10.53
2018-10-06T01:18:54.859Z,9.87
2018-10-06T01:21:23.223Z,10.00
2018-10-06T01:23:51.600Z,10.47
2018-10-06T01:26:19.913Z,10.20
2018-10-06T01:28:48.334Z,9.57
2018-10-06T01:31:16.687Z,10.23
2018-10-06T01:33:45.515Z,9.93
2018-10-06T01:36:14.086Z,10.30
2018-10-06T01:38:42.685Z,10.03
2018-10-06T01:41:10.973Z,9.50
2018-10-06T01:43:39.332Z,9.70
2018-10-06T01:46:08.172Z,9.50
2018-10-06T01:48:36.891Z,9.67
2018-10-06T01:51:05.400Z,10.03
2018-10-06T01:53:34.013Z,9.63
2018-10-06T01:56:02.457Z,10.20
2018-10-06T01:58:30.962Z,9.63
2018-10-06T02:00:59.311Z,8.97
2018-10-06T02:03:28.082Z,10.03
2018-10-06T02:05:56.445Z,9.43
2018-10-06T02:08:25.284Z,10.67
2018-10-06T02:10:53.606Z,9.97
2018-10-06T02:13:21.953Z,9.80
2018-10-06T02:15:50.307Z,10.43
2018-10-06T02:18:18.697Z,10.77
2018-10-06T02:20:47.416Z,9.83
2018-10-06T02:23:15.777Z,10.80
2018-10-06T02:25:44.152Z,11.13
2018-10-06T02:28:12.632Z,11.27
2018-10-06T02:30:40.983Z,11.10
2018-10-06T02:33:09.312Z,9.93
2018-10-06T02:35:37.615Z,10.20
2018-10-06T02:38:06.255Z,9.90
2018-10-06T02:40:34.590Z,10.20
2018-10-06T02:43:02.892Z,10.10
2018-10-06T02:45:31.201Z,10.23
2018-10-06T02:47:59.513Z,10.77
2018-10-06T02:50:27.942Z,10.17
2018-10-06T02:52:56.262Z,10.40
2018-10-06T02:55:24.582Z,10.43
2018-10-06T02:57:52.923Z,10.47
2018-10-06T03:00:21.239Z,10.37
2018-10-06T03:02:49.580Z,10.53
2018-10-06T03:05:17.930Z,10.33
2018-10-06T03:07:46.401Z,10.40
2018-10-06T03:10:14.764Z,10.60
2018-10-06T03:12:43.143Z,9.87
2018-10-06T03:15:11.488Z,10.50
2018-10-06T03:17:39.786Z,10.40
2018-10-06T03:20:08.118Z,11.13
2018-10-06T03:22:36.921Z,10.50
2018-10-06T03:25:05.455Z,10.33
2018-10-06T03:27:33.767Z,10.77
2018-10-06T03:30:02.128Z,10.67
2018-10-06T03:32:30.451Z,10.93
2018-10-06T03:34:58.890Z,10.93
2018-10-06T03:37:27.283Z,11.27
2018-10-06T03:39:55.665Z,11.00
2018-10-06T03:42:23.979Z,10.67
2018-10-06T03:44:52.337Z,10.43
2018-10-06T03:47:20.631Z,10.40
2018-10-06T03:49:49.083Z,11.33
2018-10-06T03:52:17.389Z,10.63
2018-10-06T03:54:45.846Z,10.87
2018-10-06T03:57:14.208Z,11.13
2018-10-06T03:59:42.575Z,11.10
2018-10-06T04:02:10.885Z,11.03
2018-10-06T04:04:39.934Z,11.10
2018-10-06T04:07:08.366Z,11.03
2018-10-06T04:09:37.201Z,11.03
2018-10-06T04:12:05.562Z,11.57
2018-10-06T04:14:33.950Z,10.83
2018-10-06T04:17:02.294Z,11.10
2018-10-06T04:19:30.632Z,10.60
2018-10-06T04:21:58.968Z,11.50
2018-10-06T04:24:27.320Z,10.60
2018-10-06T04:26:55.673Z,10.63
2018-10-06T04:29:24.032Z,11.50
2018-10-06T04:31:52.445Z,10.70
2018-10-06T04:34:20.847Z,11.17
2018-10-06T04:36:49.175Z,11.23
2018-10-06T04:39:17.492Z,10.67
2018-10-06T04:41:45.911Z,10.57
2018-10-06T04:44:14.411Z,10.90
2018-10-06T04:46:42.726Z,10.63
2018-10-06T04:49:11.123Z,11.00
2018-10-06T04:51:39.500Z,11.13
2018-10-06T04:54:08.247Z,10.73
2018-10-06T04:56:36.880Z,10.87
2018-10-06T04:59:05.293Z,10.47
2018-10-06T05:01:33.639Z,10.40
2018-10-06T05:04:02.038Z,11.07
2018-10-06T05:06:30.563Z,10.23
2018-10-06T05:08:58.859Z,10.40
2018-10-06T05:11:27.189Z,11.00
2018-10-06T05:13:55.520Z,11.10
2018-10-06T05:16:23.880Z,10.43
2018-10-06T05:18:52.217Z,10.43
2018-10-06T05:21:20.614Z,11.20
2018-10-06T05:23:49.042Z,11.33
2018-10-06T05:26:17.445Z,10.70
2018-10-06T05:28:45.954Z,11.10
2018-10-06T05:31:14.306Z,11.53
2018-10-06T05:33:42.631Z,11.17
2018-10-06T05:36:10.964Z,11.87
2018-10-06T05:38:39.290Z,12.43
2018-10-06T05:41:07.629Z,12.53
2018-10-06T05:43:36.035Z,12.87
2018-10-06T05:46:04.761Z,11.87
2018-10-06T05:48:33.069Z,12.07
2018-10-06T05:51:01.383Z,12.63
2018-10-06T05:53:29.705Z,13.13
2018-10-06T05:55:58.066Z,12.73
2018-10-06T05:58:26.381Z,12.53
2018-10-06T06:00:54.731Z,12.13
2018-10-06T06:03:23.136Z,11.80
2018-10-06T06:05:51.467Z,11.23
2018-10-06T06:08:19.827Z,11.67
2018-10-06T06:10:48.274Z,12.37
2018-10-06T06:13:16.767Z,12.20
2018-10-06T06:15:45.180Z,12.37
2018-10-06T06:18:13.565Z,12.40
2018-10-06T06:20:41.927Z,12.43
2018-10-06T06:23:10.330Z,13.47
2018-10-06T06:25:38.850Z,13.17
2018-10-06T06:28:07.449Z,13.07
2018-10-06T06:30:36.775Z,13.33
2018-10-06T06:33:06.035Z,12.53
2018-10-06T06:35:35.582Z,13.57
2018-10-06T06:38:03.929Z,13.40
2018-10-06T06:40:32.323Z,13.63
2018-10-06T06:43:00.723Z,13.70
2018-10-06T06:45:29.146Z,13.37
2018-10-06T06:47:57.489Z,13.90
2018-10-06T06:50:25.926Z,14.37
2018-10-06T06:52:54.341Z,13.90
2018-10-06T06:55:22.691Z,12.90
2018-10-06T06:57:51.029Z,12.37
2018-10-06T07:00:19.441Z,13.20
2018-10-06T07:02:47.773Z,13.10
2018-10-06T07:05:20.352Z,13.97
2018-10-06T07:07:48.694Z,13.60
2018-10-06T07:10:17.028Z,13.07
2018-10-06T07:12:45.801Z,13.57
2018-10-06T07:15:14.497Z,13.50
2018-10-06T07:17:42.979Z,13.87
2018-10-06T07:20:11.602Z,13.87
2018-10-06T07:22:40.112Z,14.17
2018-10-06T07:25:08.909Z,13.93
2018-10-06T07:27:37.727Z,14.57
2018-10-06T07:30:06.293Z,15.30
2018-10-06T07:32:34.838Z,14.50
2018-10-06T07:35:03.402Z,14.77
2018-10-06T07:37:32.232Z,14.07
2018-10-06T07:40:00.984Z,15.10
2018-10-06T07:42:29.668Z,12.30
2018-10-06T07:44:58.339Z,14.47
2018-10-06T07:47:27.637Z,15.10
2018-10-06T07:49:56.139Z,14.63
2018-10-06T07:52:24.471Z,15.53
2018-10-06T07:54:52.795Z,15.10
2018-10-06T07:57:21.367Z,15.37
2018-10-06T07:59:49.791Z,15.17
2018-10-06T08:02:18.136Z,15.47
2018-10-06T08:04:46.439Z,15.07
2018-10-06T08:07:14.760Z,15.63
2018-10-06T08:09:43.084Z,16.27
2018-10-06T08:12:11.381Z,16.73
2018-10-06T08:14:39.676Z,17.37
2018-10-06T08:17:07.992Z,16.97
2018-10-06T08:19:36.313Z,17.77
2018-10-06T08:22:04.655Z,16.93
2018-10-06T08:24:32.947Z,16.63
2018-10-06T08:27:01.293Z,16.00
2018-10-06T08:29:29.653Z,17.13
2018-10-06T08:31:58.007Z,17.53
2018-10-06T08:34:26.296Z,16.97
2018-10-06T08:36:54.663Z,17.13
2018-10-06T08:39:22.989Z,16.63
2018-10-06T08:41:57.633Z,16.70
2018-10-06T08:44:26.069Z,17.63
2018-10-06T08:46:54.624Z,18.23
2018-10-06T08:49:22.923Z,16.93
2018-10-06T08:51:51.307Z,16.90
2018-10-06T08:54:19.639Z,17.23
2018-10-06T08:56:47.964Z,17.10
2018-10-06T08:59:16.449Z,18.23
2018-10-06T09:01:44.764Z,17.37
2018-10-06T09:04:13.102Z,17.57
2018-10-06T09:06:41.460Z,18.37
2018-10-06T09:09:10.246Z,17.77
2018-10-06T09:11:38.592Z,17.57
2018-10-06T09:14:13.615Z,17.43
2018-10-06T09:16:41.999Z,18.23
2018-10-06T09:19:10.322Z,17.20
2018-10-06T09:21:38.634Z,17.00
2018-10-06T09:24:07.143Z,17.83
2018-10-06T09:26:35.439Z,17.87
2018-10-06T09:29:03.801Z,17.47
2018-10-06T09:31:32.112Z,18.07
2018-10-06T09:34:00.422Z,17.70
2018-10-06T09:36:28.735Z,17.00
2018-10-06T09:38:57.088Z,18.13
2018-10-06T09:41:25.386Z,17.67
2018-10-06T09:43:53.767Z,16.73
2018-10-06T09:46:22.068Z,16.33
2018-10-06T09:48:50.396Z,18.13
2018-10-06T09:51:18.690Z,22.00
2018-10-06T09:53:47.100Z,19.20
2018-10-06T09:56:15.329Z,17.93
2018-10-06T09:58:43.657Z,17.53
2018-10-06T10:01:17.197Z,16.77
2018-10-06T10:04:18.483Z,16.03
2018-10-06T10:06:46.862Z,16.73
2018-10-06T10:09:16.180Z,15.80
2018-10-06T10:11:44.463Z,15.97
2018-10-06T10:14:12.942Z,17.53
2018-10-06T10:16:41.264Z,15.67
2018-10-06T10:19:09.630Z,15.37
2018-10-06T10:21:37.916Z,28.97
2018-10-06T10:24:06.243Z,20.07
2018-10-06T10:26:34.594Z,20.93
2018-10-06T10:29:02.933Z,17.27
2018-10-06T10:31:31.295Z,14.97
2018-10-06T10:33:59.677Z,15.37
2018-10-06T10:36:28.022Z,15.23
2018-10-06T10:38:56.355Z,14.60
2018-10-06T10:41:24.764Z,14.77
2018-10-06T10:43:53.127Z,13.97
2018-10-06T10:46:21.548Z,14.37
2018-10-06T10:48:49.876Z,14.23
2018-10-06T10:51:18.285Z,13.37
2018-10-06T10:53:47.699Z,13.90
2018-10-06T10:56:15.989Z,14.17
2018-10-06T10:58:44.305Z,14.37
2018-10-06T11:01:12.758Z,13.10
2018-10-06T11:03:40.965Z,13.07
2018-10-06T11:06:09.507Z,12.53
2018-10-06T11:08:37.812Z,12.97
2018-10-06T11:11:06.201Z,12.30
2018-10-06T11:13:34.465Z,12.50
2018-10-06T11:16:02.777Z,12.57
2018-10-06T11:18:31.081Z,17.23
2018-10-06T11:20:59.417Z,13.03
2018-10-06T11:23:27.737Z,14.97
2018-10-06T11:25:56.133Z,12.50
2018-10-06T11:28:24.432Z,11.77
2018-10-06T11:30:52.764Z,11.97
2018-10-06T11:33:21.049Z,11.47
2018-10-06T11:35:49.445Z,11.63
2018-10-06T11:38:17.816Z,10.90
2018-10-06T11:40:46.155Z,11.47
2018-10-06T11:43:14.541Z,10.13
2018-10-06T11:45:42.859Z,10.97
2018-10-06T11:48:11.184Z,11.53
2018-10-06T11:50:39.484Z,10.93
2018-10-06T11:53:07.775Z,21.83
2018-10-06T11:55:36.120Z,20.90
2018-10-06T11:58:04.503Z,12.03
2018-10-06T12:00:32.913Z,10.90
2018-10-06T12:03:01.149Z,10.60
2018-10-06T12:05:29.450Z,10.47
2018-10-06T12:07:57.804Z,10.53
2018-10-06T12:10:26.139Z,9.87
2018-10-06T12:12:54.429Z,10.73
2018-10-06T12:15:22.763Z,10.30
2018-10-06T12:17:51.050Z,9.73
2018-10-06T12:20:19.405Z,28.23
2018-10-06T12:22:47.737Z,19.47
2018-10-06T12:25:16.062Z,11.40
2018-10-06T12:27:44.398Z,9.70
2018-10-06T12:30:12.805Z,9.37
2018-10-06T12:32:41.172Z,8.90
2018-10-06T12:35:09.531Z,8.57
2018-10-06T12:37:37.836Z,9.03
2018-10-06T12:40:06.175Z,8.63
2018-10-06T12:42:34.564Z,8.33
2018-10-06T12:45:02.970Z,10.20
2018-10-06T12:47:31.259Z,9.97
2018-10-06T12:49:59.911Z,8.93
2018-10-06T12:52:28.232Z,9.20
2018-10-06T12:54:56.537Z,8.80
2018-10-06T12:57:24.849Z,8.63
2018-10-06T12:59:53.155Z,7.60
2018-10-06T13:02:21.443Z,7.60
2018-10-06T13:04:49.781Z,8.67
2018-10-06T13:07:18.115Z,8.13
2018-10-06T13:09:46.426Z,7.83
2018-10-06T13:12:14.764Z,8.43
2018-10-06T13:14:43.059Z,8.60
2018-10-06T13:17:11.355Z,8.17
2018-10-06T13:19:39.668Z,8.50
2018-10-06T13:22:08.018Z,8.03
2018-10-06T13:24:36.303Z,7.77
2018-10-06T13:27:04.666Z,8.27
2018-10-06T13:29:32.971Z,7.73
2018-10-06T13:32:01.337Z,7.97
2018-10-06T13:34:29.655Z,8.10
2018-10-06T13:36:57.992Z,7.97
2018-10-06T13:39:26.276Z,7.70
2018-10-06T13:41:54.613Z,7.83
2018-10-06T13:44:23.320Z,7.23
2018-10-06T13:46:51.720Z,7.23
2018-10-06T13:49:19.968Z,6.70
2018-10-06T13:51:48.285Z,7.30
2018-10-06T13:54:16.580Z,6.80
2018-10-06T13:56:44.984Z,6.63
2018-10-06T13:59:13.366Z,6.67
2018-10-06T14:01:41.691Z,6.83
2018-10-06T14:04:10.055Z,6.53
2018-10-06T14:06:38.377Z,6.50
2018-10-06T14:09:07.128Z,6.50
2018-10-06T14:11:35.467Z,6.33
2018-10-06T14:14:03.774Z,6.33
2018-10-06T14:16:32.076Z,6.90
2018-10-06T14:19:03.377Z,6.73
2018-10-06T14:21:31.858Z,6.70
2018-10-06T14:24:00.160Z,6.83
2018-10-06T14:26:28.489Z,8.07
2018-10-06T14:28:56.875Z,7.60
2018-10-06T14:31:25.254Z,7.30
2018-10-06T14:33:53.636Z,7.23
2018-10-06T14:36:21.941Z,6.67
2018-10-06T14:38:50.263Z,6.80
2018-10-06T14:41:19.114Z,6.10
2018-10-06T14:43:47.555Z,5.40
2018-10-06T14:46:15.832Z,6.30
2018-10-06T14:48:44.143Z,6.00
2018-10-06T14:51:12.432Z,6.50
2018-10-06T14:53:40.763Z,5.80
2018-10-06T14:56:09.054Z,5.67
2018-10-06T14:58:37.355Z,7.13
2018-10-06T15:01:05.830Z,6.67
2018-10-06T15:03:34.204Z,6.60
2018-10-06T15:06:02.473Z,6.20
2018-10-06T15:08:30.772Z,6.63
2018-10-06T15:10:59.055Z,6.50
2018-10-06T15:13:27.359Z,7.23
2018-10-06T15:15:55.761Z,6.47
2018-10-06T15:18:24.067Z,6.63
2018-10-06T15:20:52.396Z,5.90
2018-10-06T15:23:20.699Z,6.67
2018-10-06T15:25:49.000Z,6.53
2018-10-06T15:28:17.290Z,6.03
2018-10-06T15:30:45.603Z,7.53
2018-10-06T15:33:13.906Z,8.17
2018-10-06T15:35:42.208Z,8.03
2018-10-06T15:38:10.534Z,7.77
2018-10-06T15:40:38.867Z,7.50
2018-10-06T15:43:07.565Z,8.37
2018-10-06T15:45:35.863Z,7.70
2018-10-06T15:48:04.203Z,8.37
2018-10-06T15:50:32.539Z,8.33
2018-10-06T15:53:00.886Z,8.53
2018-10-06T15:55:29.203Z,7.33
2018-10-06T15:57:57.560Z,7.53
2018-10-06T16:00:25.884Z,7.60
2018-10-06T16:02:54.213Z,7.20
2018-10-06T16:05:22.509Z,6.10
2018-10-06T16:07:50.810Z,7.23
2018-10-06T16:10:19.116Z,5.33
2018-10-06T16:12:47.467Z,6.57
2018-10-06T16:15:15.771Z,5.87
2018-10-06T16:17:44.075Z,6.20
2018-10-06T16:20:12.415Z,6.60
2018-10-06T16:22:40.718Z,6.63
2018-10-06T16:25:09.073Z,6.10
2018-10-06T16:27:37.456Z,5.57
2018-10-06T16:30:07.064Z,6.57
2018-10-06T16:32:35.369Z,7.03
2018-10-06T16:35:03.692Z,10.60
2018-10-06T16:37:31.991Z,7.87
2018-10-06T16:40:00.470Z,8.43
2018-10-06T16:42:28.774Z,7.33
2018-10-06T16:44:57.295Z,7.30
2018-10-06T16:47:25.611Z,6.50
2018-10-06T16:49:53.934Z,6.90
2018-10-06T16:52:22.379Z,6.43
2018-10-06T16:54:50.705Z,7.27
2018-10-06T16:57:19.015Z,7.07
2018-10-06T16:59:47.324Z,7.13
2018-10-06T17:02:15.691Z,6.77
2018-10-06T17:04:43.980Z,7.57
2018-10-06T17:07:12.258Z,7.37
2018-10-06T17:09:40.612Z,7.87
2018-10-06T17:12:08.986Z,7.87
2018-10-06T17:14:37.361Z,7.80
2018-10-06T17:17:05.652Z,8.30
2018-10-06T17:19:34.007Z,9.40
2018-10-06T17:22:02.351Z,8.67
2018-10-06T17:24:30.777Z,9.10
2018-10-06T17:26:59.119Z,9.27
2018-10-06T17:29:27.464Z,8.67
2018-10-06T17:31:55.766Z,8.83
2018-10-06T17:34:24.186Z,8.80
2018-10-06T17:36:52.487Z,9.67
2018-10-06T17:39:20.792Z,9.90
2018-10-06T17:41:49.079Z,9.57
2018-10-06T17:44:17.445Z,10.67
2018-10-06T17:46:45.731Z,9.80
2018-10-06T17:49:14.071Z,9.63
2018-10-06T17:51:42.371Z,9.70
2018-10-06T17:54:10.630Z,10.23
2018-10-06T17:56:38.948Z,9.97
2018-10-06T17:59:07.259Z,9.87
2018-10-06T18:01:35.579Z,10.10
2018-10-06T18:04:03.870Z,10.40
2018-10-06T18:06:32.199Z,10.47
2018-10-06T18:09:00.510Z,10.70
2018-10-06T18:11:28.816Z,10.23
2018-10-06T18:13:57.216Z,10.90
2018-10-06T18:16:25.547Z,10.47
2018-10-06T18:18:53.836Z,11.80
2018-10-06T18:21:22.423Z,11.60
2018-10-06T18:23:50.680Z,12.00
2018-10-06T18:26:19.013Z,11.17
2018-10-06T18:28:47.312Z,13.77
2018-10-06T18:31:15.650Z,13.40
2018-10-06T18:33:44.036Z,13.40
2018-10-06T18:36:12.379Z,13.00
2018-10-06T18:38:40.691Z,12.10
2018-10-06T18:41:09.218Z,11.23
2018-10-06T18:43:37.573Z,12.70
2018-10-06T18:46:05.879Z,12.10
2018-10-06T18:48:34.312Z,11.77
2018-10-06T18:51:02.695Z,10.47
2018-10-06T18:53:31.032Z,9.83
2018-10-06T18:55:59.338Z,10.70
2018-10-06T18:58:27.742Z,9.67
2018-10-06T19:00:56.089Z,10.27
2018-10-06T19:03:24.485Z,9.93
2018-10-06T19:05:52.741Z,9.30
2018-10-06T19:08:21.044Z,9.70
2018-10-06T19:10:49.352Z,9.37
2018-10-06T19:13:17.688Z,8.70
2018-10-06T19:15:45.983Z,10.17
2018-10-06T19:18:14.348Z,9.70
2018-10-06T19:20:42.638Z,11.07
2018-10-06T19:23:10.964Z,8.83
2018-10-06T19:25:39.336Z,9.60
2018-10-06T19:28:07.611Z,9.10
2018-10-06T19:30:35.901Z,9.63
2018-10-06T19:33:04.202Z,10.70
2018-10-06T19:35:32.501Z,12.83
2018-10-06T19:38:00.815Z,14.63
2018-10-06T19:40:29.180Z,12.53
2018-10-06T19:42:57.484Z,12.27
2018-10-06T19:45:25.790Z,11.63
2018-10-06T19:47:54.099Z,11.23
2018-10-06T19:50:22.391Z,10.60
2018-10-06T19:52:50.725Z,11.13
2018-10-06T19:55:19.030Z,11.13
2018-10-06T19:57:47.351Z,10.57
2018-10-06T20:00:15.674Z,10.47
2018-10-06T20:02:44.004Z,11.10
2018-10-06T20:05:12.300Z,10.00
2018-10-06T20:07:40.640Z,11.33
2018-10-06T20:10:08.928Z,11.80
2018-10-06T20:12:37.323Z,11.47
2018-10-06T20:15:06.172Z,11.33
2018-10-06T20:17:34.506Z,11.30
2018-10-06T20:20:02.841Z,11.67
2018-10-06T20:22:31.263Z,11.00
2018-10-06T20:24:59.555Z,13.47
2018-10-06T20:27:27.865Z,12.60
2018-10-06T20:29:56.163Z,13.60
2018-10-06T20:32:24.659Z,12.60
2018-10-06T20:34:59.395Z,12.33
2018-10-06T20:37:27.711Z,13.70
2018-10-06T20:39:56.022Z,14.37
2018-10-06T20:42:24.341Z,14.40
2018-10-06T20:44:52.657Z,12.03
2018-10-06T20:47:20.983Z,11.67
2018-10-06T20:49:49.302Z,10.87
2018-10-06T20:52:17.638Z,10.10
2018-10-06T20:54:45.951Z,11.80
2018-10-06T20:57:14.288Z,9.87
2018-10-06T20:59:42.612Z,14.90
2018-10-06T21:02:10.953Z,15.00
2018-10-06T21:04:39.237Z,10.37
2018-10-06T21:07:07.660Z,11.77
2018-10-06T21:09:35.952Z,12.40
2018-10-06T21:12:04.300Z,13.43
2018-10-06T21:14:32.631Z,13.17
2018-10-06T21:17:00.930Z,12.83
2018-10-06T21:19:29.256Z,12.27
2018-10-06T21:21:57.612Z,11.73
2018-10-06T21:24:25.929Z,13.60
2018-10-06T21:26:54.267Z,12.43
2018-10-06T21:29:22.673Z,13.00
2018-10-06T21:31:50.891Z,12.40
2018-10-06T21:34:19.220Z,13.63
2018-10-06T21:36:47.514Z,13.87
2018-10-06T21:39:15.906Z,12.30
2018-10-06T21:41:44.192Z,12.43
2018-10-06T21:44:12.543Z,12.90
2018-10-06T21:46:40.941Z,13.37
2018-10-06T21:49:09.459Z,13.07
2018-10-06T21:51:37.792Z,13.03
2018-10-06T21:54:06.130Z,12.70
2018-10-06T21:56:34.435Z,12.77
2018-10-06T21:59:02.820Z,12.37
2018-10-06T22:01:31.179Z,12.97
2018-10-06T22:03:59.492Z,13.13
2018-10-06T22:06:27.806Z,12.43
2018-10-06T22:08:56.135Z,11.87
2018-10-06T22:11:24.416Z,11.90
2018-10-06T22:13:52.765Z,11.23
2018-10-06T22:16:21.281Z,12.20
2018-10-06T22:18:49.599Z,11.63
2018-10-06T22:21:17.897Z,11.63
2018-10-06T22:23:46.267Z,12.63
2018-10-06T22:26:14.551Z,13.27
2018-10-06T22:28:42.882Z,12.97
2018-10-06T22:31:11.184Z,11.60
2018-10-06T22:33:39.493Z,11.17
2018-10-06T22:36:07.854Z,11.27
2018-10-06T22:38:36.236Z,11.17
2018-10-06T22:41:04.575Z,11.43
2018-10-06T22:43:32.902Z,11.37
2018-10-06T22:46:01.290Z,11.80
2018-10-06T22:48:29.575Z,11.70
2018-10-06T22:50:57.928Z,11.10
2018-10-06T22:53:26.240Z,11.10
2018-10-06T22:55:54.559Z,11.00
2018-10-06T22:58:22.952Z,10.70
2018-10-06T23:00:51.484Z,11.43
2018-10-06T23:03:19.860Z,10.70
2018-10-06T23:05:48.155Z,11.93
2018-10-06T23:08:16.451Z,11.27
2018-10-06T23:10:44.773Z,11.67
2018-10-06T23:13:13.066Z,11.63
2018-10-06T23:15:41.368Z,11.30
2018-10-06T23:18:09.672Z,11.17
2018-10-06T23:20:37.984Z,10.60
2018-10-06T23:23:06.471Z,10.30
2018-10-06T23:25:34.794Z,10.13
2018-10-06T23:28:03.241Z,9.90
2018-10-06T23:30:31.594Z,9.63
2018-10-06T23:32:59.951Z,9.30
2018-10-06T23:35:28.324Z,9.07
2018-10-06T23:37:56.614Z,9.43
2018-10-06T23:40:24.935Z,9.10
2018-10-06T23:42:53.253Z,9.03
2018-10-06T23:45:21.646Z,8.70
2018-10-06T23:47:50.169Z,9.50
2018-10-06T23:50:18.446Z,9.93
2018-10-06T23:52:46.752Z,9.13
2018-10-06T23:55:15.035Z,9.20
2018-10-06T23:57:43.346Z,9.07
